Startpagina
METAR-TAF:

METAR-TAF

Vliegvelden :

Radom-Sadków

Radom, Polen

breedte: 51-23-21N, lengte: 21-12-49E, hoogte: 186 m

Actueel weer

Dit bericht is 10 uur en het 57 minuten geleden gemaakt, om 18:00 UTC
Wind 6 kt uit het westen
Temperatuur 11°C
Vochtigheid 82%
Druk 1018 hPa
Zicht 10 km of meer
geen wolken onder 1500 m en geen cumulonimbus

METAR: EPRA 221800Z 26006KT CAVOK 11/08 Q1018

Tijdstip: 06:57 (04:57 UTC)

Verwachting

Dit bericht is 11 uur en het 27 minuten geleden gemaakt, om 17:30 UTC
Verwachting geldig van 22 om 18 UTC tot 23 om 03 UTC
Wind 8 kt uit het westzuidwesten
Zicht 10 km of meer
Verspreide wolken op 4000 ft

TAF: EPRA 221730Z 2218/2303 25008KT 9999 SCT040

Waarnemingen en weersverwachtingen van meer dan 4000 vliegvelden (METAR en TAF).

De beschikbare stations zijn de gele en rode punten op de kaart.

Ga met uw muis naar het station om de naam te zien.

Klik dan om waarnemingen en weersverwachtingen te zien.

kaart wijzigen: klik op de groene knoppen met een zwart kruis om in te zoomen, op de groene knop met een streepje om uit te zoomen of op de groene pijlen voor aangrenzende kaarten.


METAR-TAF: